Time;durP1;ratioP1;P1;durP2;ratioP2;P2;SDS_P1;SDS_P2;PMS_P1;PMS_P2;Temp;Humidity;BMP_temperature;BMP_pressure;BME280_temperature;BME280_humidity;BME280_pressure;Samples;Min_cycle;Max_cycle;Signal;HPM_P1;HPM_P2
2023/02/24 00:00:37;;;;;;;26.30;15.03;;;;;;;;;;767197;180;911543;-67
2023/02/24 00:03:04;;;;;;;23.33;13.50;;;;;;;;;;769668;182;920711;-68
2023/02/24 00:05:25;;;;;;;28.30;14.50;;;;;;;;;;779545;178;916225;-67
2023/02/24 00:07:51;;;;;;;25.97;14.87;;;;;;;;;;775913;180;919551;-74
2023/02/24 00:10:18;;;;;;;25.00;15.37;;;;;;;;;;778187;180;916408;-74
2023/02/24 00:12:44;;;;;;;30.53;15.13;;;;;;;;;;777433;181;917865;-74
2023/02/24 00:15:09;;;;;;;19.03;12.57;;;;;;;;;;772438;180;918682;-67
2023/02/24 00:17:37;;;;;;;22.37;14.97;;;;;;;;;;769756;181;920236;-74
2023/02/24 00:20:00;;;;;;;18.87;13.70;;;;;;;;;;776476;181;919249;-66
2023/02/24 00:22:27;;;;;;;26.93;14.90;;;;;;;;;;771737;181;922017;-74
2023/02/24 00:24:52;;;;;;;23.97;13.87;;;;;;;;;;762451;182;919342;-66
2023/02/24 00:27:18;;;;;;;22.23;13.70;;;;;;;;;;763953;181;920449;-67
2023/02/24 00:29:44;;;;;;;23.37;14.63;;;;;;;;;;780284;179;920504;-66
2023/02/24 00:32:13;;;;;;;29.70;14.63;;;;;;;;;;763508;182;920284;-66
2023/02/24 00:34:37;;;;;;;26.97;15.80;;;;;;;;;;767309;180;926746;-75
2023/02/24 00:37:05;;;;;;;27.63;15.17;;;;;;;;;;769839;183;918525;-67
2023/02/24 00:39:31;;;;;;;24.13;14.37;;;;;;;;;;762851;181;819237;-75
2023/02/24 00:42:03;;;;;;;23.23;13.57;;;;;;;;;;754433;185;919398;-66
2023/02/24 00:44:23;;;;;;;25.00;15.63;;;;;;;;;;778601;179;918841;-66
2023/02/24 00:46:50;;;;;;;25.97;16.80;;;;;;;;;;774133;181;919685;-67
2023/02/24 00:49:15;;;;;;;32.10;16.87;;;;;;;;;;773692;181;915209;-66
2023/02/24 00:51:40;;;;;;;24.57;14.87;;;;;;;;;;767506;181;914651;-75
2023/02/24 00:54:06;;;;;;;21.97;13.10;;;;;;;;;;776073;181;914591;-75
2023/02/24 00:56:32;;;;;;;20.00;14.70;;;;;;;;;;772187;180;852922;-69
2023/02/24 00:58:58;;;;;;;22.00;13.27;;;;;;;;;;774052;181;901542;-74
2023/02/24 01:01:24;;;;;;;25.20;13.37;;;;;;;;;;773260;181;920463;-74
2023/02/24 01:03:50;;;;;;;23.13;13.73;;;;;;;;;;767502;179;917668;-67
2023/02/24 01:06:19;;;;;;;24.25;14.43;;;;;;;;;;766670;182;912867;-74
2023/02/24 01:08:46;;;;;;;28.13;16.60;;;;;;;;;;771832;181;919656;-67
2023/02/24 01:13:51;;;;;;;29.10;15.27;;;;;;;;;;767358;181;919213;-75
2023/02/24 01:16:17;;;;;;;27.30;15.23;;;;;;;;;;768636;182;911876;-75
2023/02/24 01:18:43;;;;;;;30.70;14.73;;;;;;;;;;772969;181;842707;-74
2023/02/24 01:21:08;;;;;;;23.27;13.50;;;;;;;;;;772672;182;919365;-67
2023/02/24 01:23:34;;;;;;;27.27;15.53;;;;;;;;;;764906;181;919110;-66
2023/02/24 01:26:00;;;;;;;27.83;14.30;;;;;;;;;;773551;181;917131;-67
2023/02/24 01:28:26;;;;;;;21.43;13.97;;;;;;;;;;779553;181;625156;-67
2023/02/24 01:30:52;;;;;;;23.00;13.80;;;;;;;;;;771149;181;919018;-74
2023/02/24 01:33:18;;;;;;;27.73;15.50;;;;;;;;;;771567;181;918767;-74
2023/02/24 01:35:44;;;;;;;23.10;14.27;;;;;;;;;;774657;180;920878;-76
2023/02/24 01:38:10;;;;;;;23.63;12.93;;;;;;;;;;773165;181;919117;-75
2023/02/24 01:40:35;;;;;;;23.80;13.40;;;;;;;;;;772650;181;864622;-75
2023/02/24 01:43:01;;;;;;;20.27;12.97;;;;;;;;;;772789;180;922438;-67
2023/02/24 01:45:28;;;;;;;26.37;15.60;;;;;;;;;;762043;183;920261;-66
2023/02/24 01:47:54;;;;;;;28.63;14.80;;;;;;;;;;762275;182;920405;-66
2023/02/24 01:50:20;;;;;;;27.00;14.77;;;;;;;;;;767990;181;920441;-67
2023/02/24 01:52:45;;;;;;;22.50;14.32;;;;;;;;;;773500;182;1022232;-76
2023/02/24 01:55:12;;;;;;;26.23;15.32;;;;;;;;;;770813;180;919213;-75
2023/02/24 01:57:37;;;;;;;27.73;14.40;;;;;;;;;;768691;182;942348;-72
2023/02/24 02:00:18;;;;;;;21.30;13.50;;;;;;;;;;773976;181;919226;-74
2023/02/24 02:02:29;;;;;;;24.17;12.93;;;;;;;;;;773540;179;916129;-65
2023/02/24 02:04:56;;;;;;;20.77;13.48;;;;;;;;;;772397;181;816569;-66
2023/02/24 02:07:22;;;;;;;29.20;15.57;;;;;;;;;;769166;181;1020990;-73
2023/02/24 02:09:48;;;;;;;24.07;14.10;;;;;;;;;;771539;183;919351;-67
2023/02/24 02:12:14;;;;;;;27.30;14.77;;;;;;;;;;774347;181;818150;-66
2023/02/24 02:14:41;;;;;;;23.00;14.17;;;;;;;;;;767368;182;919268;-66
2023/02/24 02:17:06;;;;;;;28.90;15.20;;;;;;;;;;769985;183;917856;-65
2023/02/24 02:19:38;;;;;;;26.73;13.93;;;;;;;;;;764280;183;918967;-65
2023/02/24 02:22:06;;;;;;;26.40;14.43;;;;;;;;;;762627;183;919409;-64
2023/02/24 02:24:33;;;;;;;28.53;14.33;;;;;;;;;;763268;183;912671;-68
2023/02/24 02:27:19;;;;;;;24.07;15.20;;;;;;;;;;775984;181;918577;-68
2023/02/24 02:29:44;;;;;;;26.23;14.80;;;;;;;;;;760445;183;916792;-69
2023/02/24 02:32:22;;;;;;;21.97;13.67;;;;;;;;;;752688;186;916817;-65
2023/02/24 02:34:54;;;;;;;23.23;14.00;;;;;;;;;;755266;181;919484;-67
2023/02/24 02:37:23;;;;;;;30.90;14.60;;;;;;;;;;764612;180;919827;-70
2023/02/24 02:39:50;;;;;;;26.83;16.52;;;;;;;;;;772558;181;915798;-70
2023/02/24 02:42:31;;;;;;;27.23;16.00;;;;;;;;;;769108;181;926686;-66
2023/02/24 02:44:57;;;;;;;28.47;16.07;;;;;;;;;;762585;183;916111;-70
2023/02/24 02:47:24;;;;;;;27.27;14.33;;;;;;;;;;764713;181;920620;-66
2023/02/24 02:49:52;;;;;;;21.77;13.70;;;;;;;;;;768781;180;918735;-66
2023/02/24 02:52:18;;;;;;;30.10;16.00;;;;;;;;;;769558;182;919611;-70
2023/02/24 02:54:44;;;;;;;26.90;14.10;;;;;;;;;;767414;179;919066;-69
2023/02/24 02:57:11;;;;;;;27.73;14.70;;;;;;;;;;770398;181;916595;-66
2023/02/24 02:59:37;;;;;;;27.63;15.40;;;;;;;;;;775071;181;919237;-67
2023/02/24 03:02:13;;;;;;;31.80;16.90;;;;;;;;;;771640;179;817352;-66
2023/02/24 03:04:29;;;;;;;26.80;16.60;;;;;;;;;;764342;181;919271;-70
2023/02/24 03:06:55;;;;;;;28.33;16.70;;;;;;;;;;770382;179;917979;-69
2023/02/24 03:09:23;;;;;;;27.10;15.83;;;;;;;;;;773948;182;913959;-66
2023/02/24 03:11:52;;;;;;;27.80;15.17;;;;;;;;;;771742;181;918814;-71
2023/02/24 03:14:16;;;;;;;27.33;14.83;;;;;;;;;;773896;181;918774;-65
2023/02/24 03:16:42;;;;;;;27.08;16.40;;;;;;;;;;777597;181;920054;-66
2023/02/24 03:19:08;;;;;;;30.83;17.67;;;;;;;;;;774666;180;918303;-70
2023/02/24 03:21:34;;;;;;;28.27;15.03;;;;;;;;;;769072;181;919823;-65
2023/02/24 03:24:00;;;;;;;26.27;16.03;;;;;;;;;;768307;182;859801;-70
2023/02/24 03:26:27;;;;;;;29.10;14.73;;;;;;;;;;773510;181;919128;-70
2023/02/24 03:28:51;;;;;;;28.03;16.27;;;;;;;;;;772180;180;918455;-71
2023/02/24 03:31:18;;;;;;;29.63;15.40;;;;;;;;;;769561;181;922663;-67
2023/02/24 03:33:45;;;;;;;24.20;15.30;;;;;;;;;;772317;182;918896;-66
2023/02/24 03:36:13;;;;;;;28.50;16.17;;;;;;;;;;767543;182;925029;-71
2023/02/24 03:38:37;;;;;;;25.67;14.67;;;;;;;;;;767768;182;819184;-66
2023/02/24 03:41:09;;;;;;;21.67;14.87;;;;;;;;;;774566;181;920172;-68
2023/02/24 03:43:29;;;;;;;31.87;15.40;;;;;;;;;;765248;183;918345;-68
2023/02/24 03:45:55;;;;;;;23.33;15.30;;;;;;;;;;770722;181;910003;-75
2023/02/24 03:48:21;;;;;;;28.37;16.03;;;;;;;;;;773650;181;818307;-73
2023/02/24 03:50:48;;;;;;;25.97;15.30;;;;;;;;;;779432;180;919394;-73
2023/02/24 03:53:29;;;;;;;22.10;14.10;;;;;;;;;;774695;180;916730;-73
2023/02/24 03:56:00;;;;;;;31.03;16.00;;;;;;;;;;771660;181;918942;-75
2023/02/24 03:58:41;;;;;;;28.50;15.73;;;;;;;;;;772145;181;918946;-73
2023/02/24 04:01:08;;;;;;;26.20;14.90;;;;;;;;;;754629;181;926765;-74
2023/02/24 04:03:34;;;;;;;27.03;15.57;;;;;;;;;;769079;181;917304;-69
2023/02/24 04:06:08;;;;;;;34.70;17.23;;;;;;;;;;770438;181;918769;-74
2023/02/24 04:08:39;;;;;;;27.07;15.03;;;;;;;;;;776425;180;919881;-68
2023/02/24 04:11:09;;;;;;;33.13;15.47;;;;;;;;;;766649;182;921411;-74
2023/02/24 04:13:34;;;;;;;38.97;15.77;;;;;;;;;;776870;179;903174;-69
2023/02/24 04:15:58;;;;;;;39.33;18.13;;;;;;;;;;767780;183;921271;-68
2023/02/24 04:18:26;;;;;;;32.23;18.93;;;;;;;;;;761972;182;915929;-69
2023/02/24 04:20:52;;;;;;;31.23;16.00;;;;;;;;;;765440;182;916183;-69
2023/02/24 04:23:17;;;;;;;32.00;18.30;;;;;;;;;;770195;182;915416;-67
2023/02/24 04:25:43;;;;;;;28.47;17.30;;;;;;;;;;765929;180;920185;-68
2023/02/24 04:28:09;;;;;;;30.50;17.53;;;;;;;;;;768787;180;920942;-76
2023/02/24 04:30:35;;;;;;;34.10;19.55;;;;;;;;;;766915;181;918359;-69
2023/02/24 04:33:01;;;;;;;29.60;16.40;;;;;;;;;;769619;181;918437;-75
2023/02/24 04:35:27;;;;;;;34.70;16.73;;;;;;;;;;771428;180;920341;-76
2023/02/24 04:37:53;;;;;;;36.28;18.00;;;;;;;;;;771201;180;881670;-76
2023/02/24 04:40:20;;;;;;;43.57;19.10;;;;;;;;;;766799;180;818147;-70
2023/02/24 04:42:45;;;;;;;30.63;16.83;;;;;;;;;;766527;181;920098;-76
2023/02/24 04:45:11;;;;;;;30.27;17.90;;;;;;;;;;772218;181;910637;-69
2023/02/24 04:47:37;;;;;;;29.37;17.37;;;;;;;;;;774073;181;918720;-69
2023/02/24 04:50:05;;;;;;;38.30;18.17;;;;;;;;;;768404;181;918555;-76
2023/02/24 04:52:29;;;;;;;29.33;17.30;;;;;;;;;;771975;181;946064;-77
2023/02/24 04:54:55;;;;;;;32.30;21.00;;;;;;;;;;774041;181;916940;-77
2023/02/24 04:57:20;;;;;;;30.37;16.37;;;;;;;;;;768302;180;918894;-77
2023/02/24 04:59:46;;;;;;;28.17;17.30;;;;;;;;;;768528;181;1118435;-75
2023/02/24 05:02:14;;;;;;;35.30;19.57;;;;;;;;;;769743;180;917663;-69
2023/02/24 05:04:38;;;;;;;33.50;21.80;;;;;;;;;;774446;177;1021056;-67
2023/02/24 05:07:04;;;;;;;42.90;19.30;;;;;;;;;;765738;180;920026;-78
2023/02/24 05:09:30;;;;;;;34.65;18.58;;;;;;;;;;768934;181;933519;-70
2023/02/24 05:11:56;;;;;;;29.10;18.43;;;;;;;;;;776374;181;921845;-69
2023/02/24 05:14:21;;;;;;;35.87;19.70;;;;;;;;;;771220;180;917057;-76
2023/02/24 05:16:47;;;;;;;29.75;18.45;;;;;;;;;;771022;180;920917;-76
2023/02/24 05:21:45;;;;;;;26.70;18.10;;;;;;;;;;769788;181;918386;-76
2023/02/24 05:24:11;;;;;;;30.90;18.77;;;;;;;;;;771159;180;815860;-75
2023/02/24 05:26:37;;;;;;;30.97;18.83;;;;;;;;;;768003;181;920610;-68
2023/02/24 05:29:03;;;;;;;33.23;18.57;;;;;;;;;;773173;180;815865;-75
2023/02/24 05:31:28;;;;;;;30.40;18.17;;;;;;;;;;774837;180;818268;-68
2023/02/24 05:33:56;;;;;;;31.90;18.20;;;;;;;;;;773082;180;858009;-67
2023/02/24 05:36:20;;;;;;;35.78;18.92;;;;;;;;;;774931;181;815686;-75
2023/02/24 05:38:46;;;;;;;31.57;17.30;;;;;;;;;;772955;180;919094;-76
2023/02/24 05:41:16;;;;;;;34.80;19.70;;;;;;;;;;770781;181;919108;-76
2023/02/24 05:43:47;;;;;;;34.97;19.57;;;;;;;;;;773010;180;935844;-68
2023/02/24 05:46:12;;;;;;;30.50;20.10;;;;;;;;;;770184;179;767224;-75
2023/02/24 05:48:38;;;;;;;34.67;20.53;;;;;;;;;;766695;181;919400;-77
2023/02/24 05:51:06;;;;;;;40.23;20.10;;;;;;;;;;770964;181;923753;-67
2023/02/24 05:53:29;;;;;;;33.67;21.50;;;;;;;;;;775754;181;939820;-75
2023/02/24 05:55:55;;;;;;;35.20;19.07;;;;;;;;;;776686;180;720046;-75
2023/02/24 05:58:23;;;;;;;36.33;18.70;;;;;;;;;;771652;181;813555;-76
2023/02/24 06:00:47;;;;;;;37.92;22.62;;;;;;;;;;775857;181;816234;-68
2023/02/24 06:03:16;;;;;;;34.10;19.27;;;;;;;;;;769853;181;942072;-68
2023/02/24 06:05:41;;;;;;;37.47;20.53;;;;;;;;;;771058;180;941813;-68
2023/02/24 06:08:05;;;;;;;38.80;19.33;;;;;;;;;;772849;179;921434;-75
2023/02/24 06:10:32;;;;;;;36.27;21.30;;;;;;;;;;776805;180;921267;-74
2023/02/24 06:12:56;;;;;;;36.93;22.00;;;;;;;;;;769540;180;907433;-75
2023/02/24 06:15:22;;;;;;;33.47;21.40;;;;;;;;;;762370;180;915778;-74
2023/02/24 06:17:48;;;;;;;36.47;20.10;;;;;;;;;;776366;181;753494;-67
2023/02/24 06:20:14;;;;;;;38.87;22.87;;;;;;;;;;769300;180;919143;-67
2023/02/24 06:22:41;;;;;;;40.53;24.47;;;;;;;;;;768011;180;918201;-68
2023/02/24 06:25:06;;;;;;;43.33;23.47;;;;;;;;;;773232;181;919680;-75
2023/02/24 06:27:35;;;;;;;41.17;22.80;;;;;;;;;;769050;180;919147;-66
2023/02/24 06:29:58;;;;;;;44.87;23.10;;;;;;;;;;769382;180;919281;-74
2023/02/24 06:32:24;;;;;;;41.63;24.27;;;;;;;;;;773660;180;920925;-68
2023/02/24 06:34:50;;;;;;;39.90;22.83;;;;;;;;;;776234;181;920717;-68
2023/02/24 06:37:17;;;;;;;38.53;23.63;;;;;;;;;;770703;180;922126;-67
2023/02/24 06:39:42;;;;;;;38.50;21.30;;;;;;;;;;769075;181;1000226;-75
2023/02/24 06:42:09;;;;;;;37.83;24.07;;;;;;;;;;781669;180;821133;-68
2023/02/24 06:44:33;;;;;;;36.87;22.40;;;;;;;;;;776435;180;821044;-75
2023/02/24 06:46:59;;;;;;;44.67;24.73;;;;;;;;;;774322;180;824051;-69
2023/02/24 06:49:25;;;;;;;33.23;21.40;;;;;;;;;;779216;180;820702;-69
2023/02/24 06:51:51;;;;;;;39.43;24.40;;;;;;;;;;772811;180;919563;-68
2023/02/24 06:54:18;;;;;;;39.05;22.20;;;;;;;;;;768694;181;919137;-68
2023/02/24 06:56:43;;;;;;;37.93;21.47;;;;;;;;;;768475;179;918991;-68
2023/02/24 06:59:14;;;;;;;32.13;20.57;;;;;;;;;;771389;178;918909;-67
2023/02/24 07:01:43;;;;;;;39.53;21.97;;;;;;;;;;771725;180;921178;-67
2023/02/24 07:04:19;;;;;;;40.93;23.83;;;;;;;;;;768458;181;921249;-69
2023/02/24 07:06:44;;;;;;;32.30;20.50;;;;;;;;;;770200;181;1023732;-68
2023/02/24 07:09:10;;;;;;;40.70;23.33;;;;;;;;;;773643;181;915742;-75
2023/02/24 07:11:36;;;;;;;37.53;20.90;;;;;;;;;;773940;178;915992;-75
2023/02/24 07:14:04;;;;;;;44.00;23.27;;;;;;;;;;768909;180;926395;-75
2023/02/24 07:16:27;;;;;;;41.20;24.30;;;;;;;;;;771794;181;917962;-68
2023/02/24 07:18:55;;;;;;;35.83;22.73;;;;;;;;;;771585;181;918602;-75
2023/02/24 07:21:22;;;;;;;33.80;22.37;;;;;;;;;;767709;181;919162;-67
2023/02/24 07:23:48;;;;;;;42.97;25.83;;;;;;;;;;765763;181;919590;-75
2023/02/24 07:26:11;;;;;;;42.23;25.57;;;;;;;;;;766517;180;1015347;-75
2023/02/24 07:28:38;;;;;;;44.57;26.70;;;;;;;;;;771332;181;918597;-75
2023/02/24 07:31:04;;;;;;;44.70;26.13;;;;;;;;;;769268;181;1023171;-78
2023/02/24 07:33:29;;;;;;;45.97;24.30;;;;;;;;;;772854;181;921282;-69
2023/02/24 07:35:56;;;;;;;39.40;24.17;;;;;;;;;;771343;180;917504;-68
2023/02/24 07:38:21;;;;;;;42.70;26.70;;;;;;;;;;768742;181;872388;-68
2023/02/24 07:40:48;;;;;;;41.93;24.30;;;;;;;;;;775631;182;714618;-76
2023/02/24 07:43:14;;;;;;;43.60;25.03;;;;;;;;;;772913;180;713907;-76
2023/02/24 07:45:39;;;;;;;44.27;26.20;;;;;;;;;;771956;181;914054;-74
2023/02/24 07:48:05;;;;;;;41.13;23.93;;;;;;;;;;771346;180;818127;-68
2023/02/24 07:50:31;;;;;;;37.43;21.77;;;;;;;;;;775311;177;721361;-68
2023/02/24 07:52:58;;;;;;;46.80;24.03;;;;;;;;;;767845;180;919102;-68
2023/02/24 07:55:24;;;;;;;43.20;22.30;;;;;;;;;;769328;180;918091;-76
2023/02/24 07:57:50;;;;;;;39.33;23.67;;;;;;;;;;775533;180;919780;-68
2023/02/24 08:00:17;;;;;;;41.87;25.70;;;;;;;;;;773337;181;922615;-68
2023/02/24 08:02:41;;;;;;;40.63;24.20;;;;;;;;;;771481;180;944370;-68
2023/02/24 08:05:08;;;;;;;42.77;25.60;;;;;;;;;;775140;181;818170;-77
2023/02/24 08:07:33;;;;;;;38.38;22.92;;;;;;;;;;767031;181;918726;-68
2023/02/24 08:12:33;;;;;;;41.90;25.10;;;;;;;;;;771284;181;815070;-75
2023/02/24 08:14:59;;;;;;;39.03;24.10;;;;;;;;;;787459;180;26495;-68
2023/02/24 08:17:22;;;;;;;39.58;24.45;;;;;;;;;;767714;181;812890;-67
2023/02/24 08:19:48;;;;;;;47.70;27.13;;;;;;;;;;766795;181;980879;-67
2023/02/24 08:22:19;;;;;;;38.45;24.23;;;;;;;;;;771962;181;1115489;-68
2023/02/24 08:24:48;;;;;;;43.22;27.15;;;;;;;;;;773009;180;1019482;-68
2023/02/24 08:27:11;;;;;;;41.97;23.20;;;;;;;;;;772016;181;905145;-76
2023/02/24 08:29:56;;;;;;;40.70;24.03;;;;;;;;;;770709;181;818180;-76
2023/02/24 08:32:05;;;;;;;38.60;24.10;;;;;;;;;;775091;181;918817;-75
2023/02/24 08:34:31;;;;;;;41.40;23.60;;;;;;;;;;771579;181;1021374;-76
2023/02/24 08:36:57;;;;;;;43.50;24.50;;;;;;;;;;769963;179;917326;-75
2023/02/24 08:39:23;;;;;;;50.77;25.73;;;;;;;;;;771931;181;909482;-76
2023/02/24 08:41:53;;;;;;;42.93;26.33;;;;;;;;;;773125;181;1017327;-75
2023/02/24 08:44:19;;;;;;;42.47;25.37;;;;;;;;;;770759;180;917387;-67
2023/02/24 08:46:43;;;;;;;42.00;25.40;;;;;;;;;;771575;181;918062;-74
2023/02/24 08:49:09;;;;;;;42.88;25.37;;;;;;;;;;775625;180;818277;-67
2023/02/24 08:51:34;;;;;;;39.70;24.87;;;;;;;;;;769964;181;1014979;-75
2023/02/24 08:54:00;;;;;;;44.45;25.37;;;;;;;;;;770140;181;917667;-76
2023/02/24 08:56:27;;;;;;;40.53;24.70;;;;;;;;;;776220;181;813666;-75
2023/02/24 08:58:55;;;;;;;44.67;25.57;;;;;;;;;;779949;180;711224;-67
2023/02/24 09:01:22;;;;;;;41.97;26.90;;;;;;;;;;765695;181;919598;-67
2023/02/24 09:03:45;;;;;;;38.13;24.73;;;;;;;;;;772544;180;919881;-67
2023/02/24 09:06:11;;;;;;;48.23;25.90;;;;;;;;;;778686;180;624191;-76
2023/02/24 09:08:37;;;;;;;42.70;25.63;;;;;;;;;;768725;180;714115;-67
2023/02/24 09:11:06;;;;;;;50.08;27.30;;;;;;;;;;762320;184;816116;-74
2023/02/24 09:13:32;;;;;;;46.43;25.03;;;;;;;;;;774087;181;815036;-75
2023/02/24 09:15:58;;;;;;;39.77;24.77;;;;;;;;;;774535;180;810488;-75
2023/02/24 09:18:29;;;;;;;44.00;23.40;;;;;;;;;;773118;181;917951;-74
2023/02/24 09:20:55;;;;;;;41.10;25.40;;;;;;;;;;774220;182;919592;-67
2023/02/24 09:23:28;;;;;;;47.33;25.70;;;;;;;;;;765794;183;918778;-74
2023/02/24 09:25:49;;;;;;;43.90;26.70;;;;;;;;;;771542;181;920672;-74
2023/02/24 09:28:17;;;;;;;48.43;27.90;;;;;;;;;;770407;181;918980;-74
2023/02/24 09:30:49;;;;;;;45.77;26.20;;;;;;;;;;772382;181;918088;-74
2023/02/24 09:33:17;;;;;;;48.10;29.27;;;;;;;;;;772048;180;1018264;-66
2023/02/24 09:35:45;;;;;;;40.20;27.53;;;;;;;;;;773479;180;1021851;-66
2023/02/24 09:38:08;;;;;;;44.83;25.80;;;;;;;;;;769412;181;890097;-67
2023/02/24 09:40:38;;;;;;;50.77;29.43;;;;;;;;;;775483;181;918624;-67
2023/02/24 09:43:09;;;;;;;45.50;28.37;;;;;;;;;;770554;181;918624;-66
2023/02/24 09:45:32;;;;;;;44.17;26.00;;;;;;;;;;772506;181;918806;-74
2023/02/24 09:48:00;;;;;;;39.28;25.30;;;;;;;;;;770709;181;921819;-66
2023/02/24 09:50:29;;;;;;;44.17;24.70;;;;;;;;;;773726;180;918791;-66
2023/02/24 09:52:52;;;;;;;51.92;26.98;;;;;;;;;;773770;180;1024453;-74
2023/02/24 09:55:24;;;;;;;45.63;27.00;;;;;;;;;;771071;181;914483;-66
2023/02/24 10:00:24;;;;;;;41.10;26.27;;;;;;;;;;775234;179;920291;-74
2023/02/24 10:02:58;;;;;;;46.33;26.73;;;;;;;;;;767186;181;919050;-74
2023/02/24 10:05:20;;;;;;;41.28;24.00;;;;;;;;;;772907;179;917423;-75
2023/02/24 10:07:46;;;;;;;40.40;26.27;;;;;;;;;;772091;181;918688;-74
2023/02/24 10:10:18;;;;;;;43.60;27.07;;;;;;;;;;764467;181;915089;-73
2023/02/24 10:12:46;;;;;;;42.10;26.20;;;;;;;;;;772798;181;890460;-74
2023/02/24 10:15:18;;;;;;;39.30;25.90;;;;;;;;;;766967;181;914409;-66
2023/02/24 10:17:55;;;;;;;38.17;25.10;;;;;;;;;;774405;179;1019970;-71
2023/02/24 10:22:52;;;;;;;33.40;22.93;;;;;;;;;;763640;182;919761;-75
2023/02/24 10:25:22;;;;;;;37.93;24.10;;;;;;;;;;772699;181;817054;-67
2023/02/24 10:27:51;;;;;;;39.23;25.00;;;;;;;;;;774684;180;917501;-75
2023/02/24 10:30:18;;;;;;;40.40;23.30;;;;;;;;;;779614;181;842879;-75
2023/02/24 10:32:45;;;;;;;45.60;24.93;;;;;;;;;;776200;181;913964;-66
2023/02/24 10:35:13;;;;;;;36.73;23.60;;;;;;;;;;769507;181;871075;-74
2023/02/24 10:37:38;;;;;;;39.60;23.13;;;;;;;;;;772306;181;920238;-66
2023/02/24 10:40:08;;;;;;;37.80;23.70;;;;;;;;;;774319;181;818772;-73
2023/02/24 10:42:30;;;;;;;39.27;23.70;;;;;;;;;;769490;181;917171;-67
2023/02/24 10:45:10;;;;;;;41.00;21.90;;;;;;;;;;771269;180;917555;-74
2023/02/24 10:47:30;;;;;;;43.27;24.53;;;;;;;;;;769980;181;918728;-74
2023/02/24 10:49:56;;;;;;;37.50;25.63;;;;;;;;;;764971;183;816225;-67
2023/02/24 10:55:27;;;;;;;37.57;24.20;;;;;;;;;;763626;180;918741;-74
2023/02/24 10:57:45;;;;;;;39.50;22.57;;;;;;;;;;764445;181;919451;-66
2023/02/24 11:02:55;;;;;;;35.13;23.40;;;;;;;;;;771328;181;915917;-66
2023/02/24 11:07:52;;;;;;;41.67;23.17;;;;;;;;;;764642;181;919018;-65
2023/02/24 11:10:12;;;;;;;35.50;20.50;;;;;;;;;;767140;180;920167;-75
2023/02/24 11:17:50;;;;;;;42.10;24.03;;;;;;;;;;769090;180;920257;-74
2023/02/24 11:20:17;;;;;;;36.00;23.07;;;;;;;;;;772483;181;919286;-66
2023/02/24 11:22:44;;;;;;;41.20;23.73;;;;;;;;;;773466;180;918685;-75
2023/02/24 11:25:21;;;;;;;38.00;24.30;;;;;;;;;;775293;180;916328;-75
2023/02/24 11:27:46;;;;;;;41.60;25.23;;;;;;;;;;778216;180;918945;-75
2023/02/24 11:30:13;;;;;;;38.43;25.30;;;;;;;;;;769239;180;1054762;-66
2023/02/24 11:32:45;;;;;;;39.67;27.07;;;;;;;;;;768165;180;922018;-67
2023/02/24 11:35:16;;;;;;;38.53;24.63;;;;;;;;;;777023;180;816872;-75
2023/02/24 11:37:42;;;;;;;37.30;25.67;;;;;;;;;;767238;183;896467;-75
2023/02/24 11:40:15;;;;;;;43.50;26.77;;;;;;;;;;771489;180;924599;-75
2023/02/24 11:42:44;;;;;;;38.00;25.40;;;;;;;;;;776312;178;915968;-66
2023/02/24 11:45:13;;;;;;;42.03;25.13;;;;;;;;;;771885;182;918661;-65
2023/02/24 11:47:42;;;;;;;43.30;26.53;;;;;;;;;;770589;182;919004;-76
2023/02/24 11:50:14;;;;;;;40.37;26.23;;;;;;;;;;768648;181;920556;-74
2023/02/24 11:52:40;;;;;;;42.33;27.03;;;;;;;;;;774038;181;816225;-75
2023/02/24 11:55:07;;;;;;;40.40;23.73;;;;;;;;;;763380;180;908258;-66
2023/02/24 11:57:36;;;;;;;45.90;26.27;;;;;;;;;;775747;181;912344;-66
2023/02/24 12:00:00;;;;;;;36.37;24.57;;;;;;;;;;769706;181;820233;-75
2023/02/24 12:02:42;;;;;;;40.97;25.17;;;;;;;;;;773530;181;913739;-66
2023/02/24 12:05:10;;;;;;;44.80;23.63;;;;;;;;;;765412;182;919500;-76
2023/02/24 12:07:37;;;;;;;41.30;24.90;;;;;;;;;;770970;181;1020845;-75
2023/02/24 12:10:20;;;;;;;37.00;24.80;;;;;;;;;;764306;181;913111;-67
2023/02/24 12:12:46;;;;;;;41.70;24.87;;;;;;;;;;768991;182;919214;-67
2023/02/24 12:15:12;;;;;;;34.30;23.57;;;;;;;;;;763927;181;919709;-76
2023/02/24 12:17:38;;;;;;;39.57;25.60;;;;;;;;;;773289;181;919405;-74
2023/02/24 12:20:05;;;;;;;39.30;25.40;;;;;;;;;;778981;179;815985;-75
2023/02/24 12:22:34;;;;;;;37.70;24.67;;;;;;;;;;774711;179;919413;-75
2023/02/24 12:25:00;;;;;;;41.17;25.20;;;;;;;;;;767817;181;921749;-67
2023/02/24 12:27:41;;;;;;;37.53;23.47;;;;;;;;;;778210;180;855259;-75
2023/02/24 12:30:21;;;;;;;40.50;27.33;;;;;;;;;;774176;183;630697;-66
2023/02/24 12:32:40;;;;;;;38.73;23.80;;;;;;;;;;767481;181;909214;-78
2023/02/24 12:35:18;;;;;;;34.90;23.60;;;;;;;;;;771974;181;817969;-67
2023/02/24 12:37:45;;;;;;;48.07;25.70;;;;;;;;;;771710;181;915743;-66
2023/02/24 12:40:27;;;;;;;46.33;27.23;;;;;;;;;;768719;180;1008421;-66
2023/02/24 12:42:53;;;;;;;44.03;27.27;;;;;;;;;;771532;180;918221;-66
2023/02/24 12:45:21;;;;;;;38.80;24.80;;;;;;;;;;778715;180;917086;-77
2023/02/24 12:47:52;;;;;;;39.30;25.97;;;;;;;;;;773129;181;917757;-67
2023/02/24 12:50:20;;;;;;;39.57;26.23;;;;;;;;;;769635;179;920397;-66
2023/02/24 12:52:48;;;;;;;36.93;24.20;;;;;;;;;;779017;180;816543;-75
2023/02/24 12:55:21;;;;;;;40.73;24.10;;;;;;;;;;773341;181;918679;-76
2023/02/24 12:57:47;;;;;;;39.30;25.60;;;;;;;;;;768340;179;919039;-75
2023/02/24 13:00:14;;;;;;;45.63;23.20;;;;;;;;;;764369;180;818391;-76
2023/02/24 13:02:46;;;;;;;41.47;25.60;;;;;;;;;;775636;179;916108;-73
2023/02/24 13:05:16;;;;;;;39.80;23.83;;;;;;;;;;761793;183;854499;-76
2023/02/24 13:07:57;;;;;;;33.63;23.93;;;;;;;;;;765665;182;922093;-77
2023/02/24 13:10:25;;;;;;;37.07;23.93;;;;;;;;;;771131;181;918940;-74
2023/02/24 13:12:53;;;;;;;39.60;25.87;;;;;;;;;;769915;182;916884;-75
2023/02/24 13:15:20;;;;;;;37.50;26.10;;;;;;;;;;767835;181;838939;-73
2023/02/24 13:17:47;;;;;;;38.57;24.17;;;;;;;;;;779936;178;918460;-66
2023/02/24 13:20:13;;;;;;;37.30;23.50;;;;;;;;;;769112;180;920697;-75
2023/02/24 13:22:40;;;;;;;39.63;25.90;;;;;;;;;;769747;180;918543;-66
2023/02/24 13:25:09;;;;;;;33.67;23.62;;;;;;;;;;773595;181;1018690;-65
2023/02/24 13:27:35;;;;;;;36.60;23.60;;;;;;;;;;770363;181;919069;-74
2023/02/24 13:30:02;;;;;;;34.60;22.80;;;;;;;;;;768642;181;922596;-75
2023/02/24 13:32:30;;;;;;;31.87;21.27;;;;;;;;;;771533;181;952082;-66
2023/02/24 13:34:57;;;;;;;30.30;21.90;;;;;;;;;;775350;180;819457;-75
2023/02/24 13:37:26;;;;;;;32.17;21.30;;;;;;;;;;770707;181;913343;-74
2023/02/24 13:39:51;;;;;;;28.67;20.47;;;;;;;;;;765246;181;1018363;-64
2023/02/24 13:42:20;;;;;;;31.73;19.73;;;;;;;;;;773701;181;816857;-65
2023/02/24 13:44:47;;;;;;;30.50;21.23;;;;;;;;;;768347;180;835211;-65
2023/02/24 13:47:14;;;;;;;39.53;21.30;;;;;;;;;;767479;180;823194;-65
2023/02/24 13:49:54;;;;;;;35.23;24.67;;;;;;;;;;766460;178;1025814;-72
2023/02/24 13:52:37;;;;;;;31.40;21.10;;;;;;;;;;759687;179;891173;-65
2023/02/24 13:55:03;;;;;;;36.50;21.00;;;;;;;;;;768117;181;914509;-73
2023/02/24 13:57:31;;;;;;;30.73;20.90;;;;;;;;;;774792;181;918185;-63
2023/02/24 14:00:08;;;;;;;38.10;23.33;;;;;;;;;;770236;181;1023329;-73
2023/02/24 14:02:28;;;;;;;36.00;23.03;;;;;;;;;;773172;180;818164;-72
2023/02/24 14:04:56;;;;;;;31.13;21.20;;;;;;;;;;770163;180;830182;-65
2023/02/24 14:07:21;;;;;;;35.50;23.70;;;;;;;;;;776766;180;707284;-65
2023/02/24 14:09:48;;;;;;;37.40;22.07;;;;;;;;;;769822;180;917588;-65
2023/02/24 14:12:15;;;;;;;38.00;24.40;;;;;;;;;;770487;179;824989;-74
2023/02/24 14:14:42;;;;;;;40.00;26.10;;;;;;;;;;776273;181;925342;-73
2023/02/24 14:17:08;;;;;;;34.33;24.20;;;;;;;;;;770267;179;621269;-72
2023/02/24 14:19:34;;;;;;;36.13;23.07;;;;;;;;;;767355;181;914870;-65
2023/02/24 14:22:00;;;;;;;40.10;25.25;;;;;;;;;;773749;180;918261;-66
2023/02/24 14:24:26;;;;;;;41.27;25.27;;;;;;;;;;768171;179;912834;-73
2023/02/24 14:26:52;;;;;;;43.87;24.40;;;;;;;;;;773147;180;822039;-73
2023/02/24 14:29:19;;;;;;;42.57;26.23;;;;;;;;;;768144;181;919484;-66